sensor_id;sensor_type;location;lat;lon;timestamp;P1;durP1;ratioP1;P2;durP2;ratioP2
72427;SDS011;60419;48.880;18.036;2022-09-28T00:00:10;2.28;;;1.33;;
72427;SDS011;60419;48.880;18.036;2022-09-28T00:02:56;2.78;;;1.63;;
72427;SDS011;60419;48.880;18.036;2022-09-28T00:05:42;3.50;;;1.50;;
72427;SDS011;60419;48.880;18.036;2022-09-28T00:08:27;4.28;;;1.50;;
72427;SDS011;60419;48.880;18.036;2022-09-28T00:11:13;3.00;;;1.55;;
72427;SDS011;60419;48.880;18.036;2022-09-28T00:14:02;2.85;;;1.33;;
72427;SDS011;60419;48.880;18.036;2022-09-28T00:16:49;5.00;;;1.50;;
72427;SDS011;60419;48.880;18.036;2022-09-28T00:19:34;2.28;;;1.42;;
72427;SDS011;60419;48.880;18.036;2022-09-28T00:22:20;3.00;;;1.70;;
72427;SDS011;60419;48.880;18.036;2022-09-28T00:25:05;5.60;;;1.60;;
72427;SDS011;60419;48.880;18.036;2022-09-28T00:27:51;4.10;;;1.70;;
72427;SDS011;60419;48.880;18.036;2022-09-28T00:30:36;3.00;;;1.77;;
72427;SDS011;60419;48.880;18.036;2022-09-28T00:33:22;3.13;;;1.65;;
72427;SDS011;60419;48.880;18.036;2022-09-28T00:36:07;4.75;;;1.50;;
72427;SDS011;60419;48.880;18.036;2022-09-28T00:38:53;2.92;;;1.27;;
72427;SDS011;60419;48.880;18.036;2022-09-28T00:41:40;2.90;;;1.75;;
72427;SDS011;60419;48.880;18.036;2022-09-28T00:44:37;3.53;;;1.40;;
72427;SDS011;60419;48.880;18.036;2022-09-28T00:50:24;2.80;;;1.70;;
72427;SDS011;60419;48.880;18.036;2022-09-28T00:56:11;6.70;;;1.77;;
72427;SDS011;60419;48.880;18.036;2022-09-28T00:59:02;3.53;;;1.80;;
72427;SDS011;60419;48.880;18.036;2022-09-28T01:01:48;4.18;;;2.00;;
72427;SDS011;60419;48.880;18.036;2022-09-28T01:04:35;4.57;;;2.08;;
72427;SDS011;60419;48.880;18.036;2022-09-28T01:07:22;5.53;;;2.20;;
72427;SDS011;60419;48.880;18.036;2022-09-28T01:10:08;5.25;;;2.22;;
72427;SDS011;60419;48.880;18.036;2022-09-28T01:12:54;4.05;;;2.28;;
72427;SDS011;60419;48.880;18.036;2022-09-28T01:15:46;5.22;;;2.10;;
72427;SDS011;60419;48.880;18.036;2022-09-28T01:21:49;3.47;;;1.67;;
72427;SDS011;60419;48.880;18.036;2022-09-28T01:24:38;4.85;;;2.25;;
72427;SDS011;60419;48.880;18.036;2022-09-28T01:30:21;3.65;;;2.17;;
72427;SDS011;60419;48.880;18.036;2022-09-28T01:33:08;4.47;;;2.15;;
72427;SDS011;60419;48.880;18.036;2022-09-28T01:39:50;4.05;;;2.15;;
72427;SDS011;60419;48.880;18.036;2022-09-28T01:42:20;3.88;;;2.10;;
72427;SDS011;60419;48.880;18.036;2022-09-28T01:45:21;3.83;;;2.17;;
72427;SDS011;60419;48.880;18.036;2022-09-28T01:50:58;4.45;;;1.95;;
72427;SDS011;60419;48.880;18.036;2022-09-28T01:53:48;4.72;;;2.38;;
72427;SDS011;60419;48.880;18.036;2022-09-28T01:56:38;4.38;;;2.60;;
72427;SDS011;60419;48.880;18.036;2022-09-28T01:59:28;4.15;;;2.42;;
72427;SDS011;60419;48.880;18.036;2022-09-28T02:02:24;4.25;;;2.60;;
72427;SDS011;60419;48.880;18.036;2022-09-28T02:05:15;3.83;;;2.20;;
72427;SDS011;60419;48.880;18.036;2022-09-28T02:08:07;4.57;;;2.50;;
72427;SDS011;60419;48.880;18.036;2022-09-28T02:10:59;3.78;;;2.10;;
72427;SDS011;60419;48.880;18.036;2022-09-28T02:13:52;4.47;;;2.22;;
72427;SDS011;60419;48.880;18.036;2022-09-28T02:16:43;3.65;;;1.95;;
72427;SDS011;60419;48.880;18.036;2022-09-28T02:19:31;3.78;;;2.10;;
72427;SDS011;60419;48.880;18.036;2022-09-28T02:28:09;3.70;;;2.33;;
72427;SDS011;60419;48.880;18.036;2022-09-28T02:30:57;3.88;;;1.77;;
72427;SDS011;60419;48.880;18.036;2022-09-28T02:33:42;4.57;;;1.95;;
72427;SDS011;60419;48.880;18.036;2022-09-28T02:36:29;5.55;;;2.22;;
72427;SDS011;60419;48.880;18.036;2022-09-28T02:39:15;3.22;;;1.77;;
72427;SDS011;60419;48.880;18.036;2022-09-28T02:48:21;5.43;;;1.85;;
72427;SDS011;60419;48.880;18.036;2022-09-28T02:57:16;4.50;;;2.00;;
72427;SDS011;60419;48.880;18.036;2022-09-28T03:00:17;5.72;;;2.15;;
72427;SDS011;60419;48.880;18.036;2022-09-28T03:03:08;3.40;;;1.80;;
72427;SDS011;60419;48.880;18.036;2022-09-28T03:06:26;2.90;;;1.88;;
72427;SDS011;60419;48.880;18.036;2022-09-28T03:09:43;3.03;;;1.80;;
72427;SDS011;60419;48.880;18.036;2022-09-28T03:12:31;3.25;;;1.85;;
72427;SDS011;60419;48.880;18.036;2022-09-28T03:15:21;4.63;;;1.90;;
72427;SDS011;60419;48.880;18.036;2022-09-28T03:18:09;3.80;;;2.13;;
72427;SDS011;60419;48.880;18.036;2022-09-28T03:20:54;4.32;;;2.10;;
72427;SDS011;60419;48.880;18.036;2022-09-28T03:23:40;4.03;;;2.30;;
72427;SDS011;60419;48.880;18.036;2022-09-28T03:26:26;4.13;;;2.03;;
72427;SDS011;60419;48.880;18.036;2022-09-28T03:29:11;5.82;;;2.45;;
72427;SDS011;60419;48.880;18.036;2022-09-28T03:31:57;5.03;;;2.45;;
72427;SDS011;60419;48.880;18.036;2022-09-28T03:34:43;5.35;;;1.85;;
72427;SDS011;60419;48.880;18.036;2022-09-28T03:37:28;3.67;;;1.92;;
72427;SDS011;60419;48.880;18.036;2022-09-28T03:40:13;3.92;;;2.15;;
72427;SDS011;60419;48.880;18.036;2022-09-28T03:42:59;3.88;;;2.20;;
72427;SDS011;60419;48.880;18.036;2022-09-28T03:45:52;5.15;;;2.33;;
72427;SDS011;60419;48.880;18.036;2022-09-28T03:48:38;3.88;;;2.13;;
72427;SDS011;60419;48.880;18.036;2022-09-28T03:51:23;5.50;;;2.30;;
72427;SDS011;60419;48.880;18.036;2022-09-28T03:54:09;4.45;;;2.42;;
72427;SDS011;60419;48.880;18.036;2022-09-28T03:56:55;6.13;;;2.50;;
72427;SDS011;60419;48.880;18.036;2022-09-28T03:59:40;6.53;;;2.30;;
72427;SDS011;60419;48.880;18.036;2022-09-28T04:02:25;3.78;;;2.00;;
72427;SDS011;60419;48.880;18.036;2022-09-28T04:05:11;5.00;;;2.45;;
72427;SDS011;60419;48.880;18.036;2022-09-28T04:07:56;5.18;;;2.17;;
72427;SDS011;60419;48.880;18.036;2022-09-28T04:10:41;5.65;;;2.40;;
72427;SDS011;60419;48.880;18.036;2022-09-28T04:13:27;6.88;;;2.95;;
72427;SDS011;60419;48.880;18.036;2022-09-28T04:16:13;5.10;;;2.53;;
72427;SDS011;60419;48.880;18.036;2022-09-28T04:18:59;5.55;;;2.47;;
72427;SDS011;60419;48.880;18.036;2022-09-28T04:21:45;3.88;;;2.60;;
72427;SDS011;60419;48.880;18.036;2022-09-28T04:24:31;5.68;;;2.83;;
72427;SDS011;60419;48.880;18.036;2022-09-28T04:27:16;4.78;;;2.42;;
72427;SDS011;60419;48.880;18.036;2022-09-28T04:30:20;6.78;;;2.42;;
72427;SDS011;60419;48.880;18.036;2022-09-28T04:33:06;7.10;;;2.30;;
72427;SDS011;60419;48.880;18.036;2022-09-28T04:35:51;8.05;;;2.80;;
72427;SDS011;60419;48.880;18.036;2022-09-28T04:38:37;4.47;;;2.72;;
72427;SDS011;60419;48.880;18.036;2022-09-28T04:41:23;4.93;;;2.80;;
72427;SDS011;60419;48.880;18.036;2022-09-28T04:44:09;5.22;;;2.90;;
72427;SDS011;60419;48.880;18.036;2022-09-28T04:46:54;4.65;;;2.80;;
72427;SDS011;60419;48.880;18.036;2022-09-28T04:49:40;5.72;;;3.17;;
72427;SDS011;60419;48.880;18.036;2022-09-28T04:52:25;5.53;;;2.85;;
72427;SDS011;60419;48.880;18.036;2022-09-28T04:55:11;5.25;;;3.15;;
72427;SDS011;60419;48.880;18.036;2022-09-28T04:57:58;7.57;;;3.45;;
72427;SDS011;60419;48.880;18.036;2022-09-28T05:00:46;6.18;;;3.67;;
72427;SDS011;60419;48.880;18.036;2022-09-28T05:03:34;6.30;;;3.80;;
72427;SDS011;60419;48.880;18.036;2022-09-28T05:06:20;8.07;;;3.28;;
72427;SDS011;60419;48.880;18.036;2022-09-28T05:09:06;7.68;;;3.50;;
72427;SDS011;60419;48.880;18.036;2022-09-28T05:11:53;5.15;;;3.28;;
72427;SDS011;60419;48.880;18.036;2022-09-28T05:14:38;8.30;;;3.20;;
72427;SDS011;60419;48.880;18.036;2022-09-28T05:17:24;8.35;;;3.70;;
72427;SDS011;60419;48.880;18.036;2022-09-28T05:20:09;8.38;;;3.50;;
72427;SDS011;60419;48.880;18.036;2022-09-28T05:22:55;11.77;;;4.43;;
72427;SDS011;60419;48.880;18.036;2022-09-28T05:25:41;5.50;;;3.55;;
72427;SDS011;60419;48.880;18.036;2022-09-28T05:28:28;5.93;;;3.70;;
72427;SDS011;60419;48.880;18.036;2022-09-28T05:31:15;9.70;;;3.60;;
72427;SDS011;60419;48.880;18.036;2022-09-28T05:34:00;5.72;;;3.78;;
72427;SDS011;60419;48.880;18.036;2022-09-28T05:36:46;7.50;;;3.70;;
72427;SDS011;60419;48.880;18.036;2022-09-28T05:39:32;8.07;;;3.85;;
72427;SDS011;60419;48.880;18.036;2022-09-28T05:42:17;10.50;;;4.78;;
72427;SDS011;60419;48.880;18.036;2022-09-28T05:45:03;9.45;;;4.15;;
72427;SDS011;60419;48.880;18.036;2022-09-28T05:47:48;11.30;;;3.83;;
72427;SDS011;60419;48.880;18.036;2022-09-28T05:50:34;6.65;;;3.80;;
72427;SDS011;60419;48.880;18.036;2022-09-28T05:53:19;8.80;;;3.90;;
72427;SDS011;60419;48.880;18.036;2022-09-28T05:56:06;6.75;;;4.82;;
72427;SDS011;60419;48.880;18.036;2022-09-28T05:58:51;6.93;;;3.50;;
72427;SDS011;60419;48.880;18.036;2022-09-28T06:01:37;6.15;;;3.60;;
72427;SDS011;60419;48.880;18.036;2022-09-28T06:04:22;5.57;;;3.22;;
72427;SDS011;60419;48.880;18.036;2022-09-28T06:07:07;8.95;;;3.00;;
72427;SDS011;60419;48.880;18.036;2022-09-28T06:09:53;8.52;;;3.38;;
72427;SDS011;60419;48.880;18.036;2022-09-28T06:12:38;7.63;;;3.28;;
72427;SDS011;60419;48.880;18.036;2022-09-28T06:15:24;4.43;;;2.72;;
72427;SDS011;60419;48.880;18.036;2022-09-28T06:18:12;6.07;;;2.63;;
72427;SDS011;60419;48.880;18.036;2022-09-28T06:20:58;5.57;;;2.50;;
72427;SDS011;60419;48.880;18.036;2022-09-28T06:23:44;4.97;;;2.40;;
72427;SDS011;60419;48.880;18.036;2022-09-28T06:26:29;3.35;;;2.25;;
72427;SDS011;60419;48.880;18.036;2022-09-28T06:29:15;10.98;;;2.70;;
72427;SDS011;60419;48.880;18.036;2022-09-28T06:32:02;4.00;;;2.30;;
72427;SDS011;60419;48.880;18.036;2022-09-28T06:34:47;3.92;;;2.40;;
72427;SDS011;60419;48.880;18.036;2022-09-28T06:37:33;7.32;;;2.60;;
72427;SDS011;60419;48.880;18.036;2022-09-28T06:40:19;4.95;;;2.58;;
72427;SDS011;60419;48.880;18.036;2022-09-28T06:43:06;6.32;;;2.97;;
72427;SDS011;60419;48.880;18.036;2022-09-28T06:45:54;5.20;;;2.60;;
72427;SDS011;60419;48.880;18.036;2022-09-28T06:48:39;4.47;;;2.70;;
72427;SDS011;60419;48.880;18.036;2022-09-28T06:51:25;4.68;;;2.80;;
72427;SDS011;60419;48.880;18.036;2022-09-28T06:54:10;6.40;;;3.00;;
72427;SDS011;60419;48.880;18.036;2022-09-28T06:56:55;4.30;;;3.10;;
72427;SDS011;60419;48.880;18.036;2022-09-28T06:59:41;9.02;;;3.45;;
72427;SDS011;60419;48.880;18.036;2022-09-28T07:02:27;8.73;;;3.45;;
72427;SDS011;60419;48.880;18.036;2022-09-28T07:05:12;6.93;;;3.40;;
72427;SDS011;60419;48.880;18.036;2022-09-28T07:07:58;5.13;;;2.45;;
72427;SDS011;60419;48.880;18.036;2022-09-28T07:10:44;5.30;;;2.67;;
72427;SDS011;60419;48.880;18.036;2022-09-28T07:13:31;5.97;;;2.25;;
72427;SDS011;60419;48.880;18.036;2022-09-28T07:16:16;5.40;;;2.63;;
72427;SDS011;60419;48.880;18.036;2022-09-28T07:19:01;5.03;;;2.67;;
72427;SDS011;60419;48.880;18.036;2022-09-28T07:21:47;4.72;;;2.75;;
72427;SDS011;60419;48.880;18.036;2022-09-28T07:24:32;4.65;;;2.50;;
72427;SDS011;60419;48.880;18.036;2022-09-28T07:27:17;5.47;;;2.88;;
72427;SDS011;60419;48.880;18.036;2022-09-28T07:30:04;5.22;;;2.65;;
72427;SDS011;60419;48.880;18.036;2022-09-28T07:32:50;6.68;;;2.40;;
72427;SDS011;60419;48.880;18.036;2022-09-28T07:35:35;3.83;;;2.33;;
72427;SDS011;60419;48.880;18.036;2022-09-28T07:38:21;4.50;;;2.03;;
72427;SDS011;60419;48.880;18.036;2022-09-28T07:41:07;4.32;;;2.10;;
72427;SDS011;60419;48.880;18.036;2022-09-28T07:43:55;3.67;;;1.75;;
72427;SDS011;60419;48.880;18.036;2022-09-28T07:46:40;3.97;;;1.90;;
72427;SDS011;60419;48.880;18.036;2022-09-28T07:49:28;4.85;;;1.75;;
72427;SDS011;60419;48.880;18.036;2022-09-28T07:52:14;3.70;;;1.40;;
72427;SDS011;60419;48.880;18.036;2022-09-28T07:55:00;7.35;;;2.25;;
72427;SDS011;60419;48.880;18.036;2022-09-28T07:57:46;3.58;;;1.88;;
72427;SDS011;60419;48.880;18.036;2022-09-28T08:00:32;3.53;;;2.38;;
72427;SDS011;60419;48.880;18.036;2022-09-28T08:03:17;3.55;;;1.90;;
72427;SDS011;60419;48.880;18.036;2022-09-28T08:06:06;6.55;;;2.80;;
72427;SDS011;60419;48.880;18.036;2022-09-28T08:08:55;5.13;;;3.05;;
72427;SDS011;60419;48.880;18.036;2022-09-28T08:11:43;4.10;;;2.35;;
72427;SDS011;60419;48.880;18.036;2022-09-28T08:14:31;5.63;;;2.80;;
72427;SDS011;60419;48.880;18.036;2022-09-28T08:17:21;5.43;;;3.33;;
72427;SDS011;60419;48.880;18.036;2022-09-28T08:20:07;4.57;;;2.53;;
72427;SDS011;60419;48.880;18.036;2022-09-28T08:23:11;3.40;;;1.98;;
72427;SDS011;60419;48.880;18.036;2022-09-28T08:25:57;3.45;;;1.90;;
72427;SDS011;60419;48.880;18.036;2022-09-28T08:28:42;3.45;;;1.95;;
72427;SDS011;60419;48.880;18.036;2022-09-28T08:31:28;2.58;;;1.58;;
72427;SDS011;60419;48.880;18.036;2022-09-28T08:34:15;3.15;;;1.30;;
72427;SDS011;60419;48.880;18.036;2022-09-28T08:37:00;2.97;;;1.50;;
72427;SDS011;60419;48.880;18.036;2022-09-28T08:39:46;11.50;;;6.50;;
72427;SDS011;60419;48.880;18.036;2022-09-28T08:42:38;5.45;;;2.55;;
72427;SDS011;60419;48.880;18.036;2022-09-28T08:45:29;3.03;;;1.17;;
72427;SDS011;60419;48.880;18.036;2022-09-28T08:48:21;2.75;;;1.25;;
72427;SDS011;60419;48.880;18.036;2022-09-28T08:51:30;2.25;;;1.20;;
72427;SDS011;60419;48.880;18.036;2022-09-28T08:57:11;1.58;;;1.10;;
72427;SDS011;60419;48.880;18.036;2022-09-28T09:00:00;3.13;;;1.20;;
72427;SDS011;60419;48.880;18.036;2022-09-28T09:02:48;2.10;;;1.13;;
72427;SDS011;60419;48.880;18.036;2022-09-28T09:06:17;3.95;;;1.20;;
72427;SDS011;60419;48.880;18.036;2022-09-28T09:18:13;3.15;;;1.50;;
72427;SDS011;60419;48.880;18.036;2022-09-28T09:21:29;2.58;;;1.52;;
72427;SDS011;60419;48.880;18.036;2022-09-28T09:24:38;2.53;;;1.35;;
72427;SDS011;60419;48.880;18.036;2022-09-28T09:27:39;3.08;;;1.50;;
72427;SDS011;60419;48.880;18.036;2022-09-28T09:40:07;3.00;;;1.40;;
72427;SDS011;60419;48.880;18.036;2022-09-28T09:51:40;1.90;;;1.20;;
72427;SDS011;60419;48.880;18.036;2022-09-28T09:54:42;2.15;;;1.10;;
72427;SDS011;60419;48.880;18.036;2022-09-28T10:00:26;4.07;;;1.23;;
72427;SDS011;60419;48.880;18.036;2022-09-28T10:03:15;2.47;;;1.13;;
72427;SDS011;60419;48.880;18.036;2022-09-28T10:06:17;2.53;;;1.35;;
72427;SDS011;60419;48.880;18.036;2022-09-28T10:09:25;10.70;;;5.40;;
72427;SDS011;60419;48.880;18.036;2022-09-28T10:12:19;5.30;;;2.53;;
72427;SDS011;60419;48.880;18.036;2022-09-28T10:15:06;2.85;;;1.45;;
72427;SDS011;60419;48.880;18.036;2022-09-28T10:17:52;4.38;;;1.20;;
72427;SDS011;60419;48.880;18.036;2022-09-28T10:20:41;5.00;;;2.25;;
72427;SDS011;60419;48.880;18.036;2022-09-28T10:23:32;3.67;;;1.65;;
72427;SDS011;60419;48.880;18.036;2022-09-28T10:26:28;4.45;;;1.40;;
72427;SDS011;60419;48.880;18.036;2022-09-28T10:29:22;3.30;;;1.30;;
72427;SDS011;60419;48.880;18.036;2022-09-28T10:32:23;3.90;;;1.10;;
72427;SDS011;60419;48.880;18.036;2022-09-28T10:35:38;2.65;;;1.10;;
72427;SDS011;60419;48.880;18.036;2022-09-28T10:38:25;5.70;;;1.35;;
72427;SDS011;60419;48.880;18.036;2022-09-28T10:41:18;2.63;;;1.10;;
72427;SDS011;60419;48.880;18.036;2022-09-28T10:44:03;2.65;;;1.13;;
72427;SDS011;60419;48.880;18.036;2022-09-28T10:46:57;2.72;;;0.98;;
72427;SDS011;60419;48.880;18.036;2022-09-28T10:49:45;4.22;;;1.10;;
72427;SDS011;60419;48.880;18.036;2022-09-28T10:55:30;3.60;;;0.90;;
72427;SDS011;60419;48.880;18.036;2022-09-28T11:01:31;3.05;;;1.25;;
72427;SDS011;60419;48.880;18.036;2022-09-28T11:04:19;1.92;;;0.90;;
72427;SDS011;60419;48.880;18.036;2022-09-28T11:07:15;1.70;;;1.00;;
72427;SDS011;60419;48.880;18.036;2022-09-28T11:10:15;1.83;;;1.10;;
72427;SDS011;60419;48.880;18.036;2022-09-28T11:13:07;2.58;;;1.20;;
72427;SDS011;60419;48.880;18.036;2022-09-28T11:15:53;5.43;;;1.60;;
72427;SDS011;60419;48.880;18.036;2022-09-28T11:18:39;2.05;;;1.40;;
72427;SDS011;60419;48.880;18.036;2022-09-28T11:21:25;4.13;;;1.70;;
72427;SDS011;60419;48.880;18.036;2022-09-28T11:27:10;3.22;;;1.60;;
72427;SDS011;60419;48.880;18.036;2022-09-28T11:30:04;2.50;;;1.50;;
72427;SDS011;60419;48.880;18.036;2022-09-28T11:33:14;2.20;;;1.20;;
72427;SDS011;60419;48.880;18.036;2022-09-28T11:46:22;4.68;;;1.35;;
72427;SDS011;60419;48.880;18.036;2022-09-28T11:49:02;2.40;;;1.20;;
72427;SDS011;60419;48.880;18.036;2022-09-28T11:51:55;2.85;;;1.40;;
72427;SDS011;60419;48.880;18.036;2022-09-28T11:54:49;1.70;;;1.20;;
72427;SDS011;60419;48.880;18.036;2022-09-28T11:57:41;2.45;;;1.30;;
72427;SDS011;60419;48.880;18.036;2022-09-28T12:00:30;2.40;;;1.25;;
72427;SDS011;60419;48.880;18.036;2022-09-28T12:03:27;3.05;;;1.30;;
72427;SDS011;60419;48.880;18.036;2022-09-28T12:06:18;2.75;;;1.45;;
72427;SDS011;60419;48.880;18.036;2022-09-28T12:09:57;2.88;;;1.30;;
72427;SDS011;60419;48.880;18.036;2022-09-28T12:12:34;16.10;;;9.05;;
72427;SDS011;60419;48.880;18.036;2022-09-28T12:15:43;3.28;;;1.85;;
72427;SDS011;60419;48.880;18.036;2022-09-28T12:18:48;2.50;;;1.27;;
72427;SDS011;60419;48.880;18.036;2022-09-28T12:21:40;2.67;;;1.23;;
72427;SDS011;60419;48.880;18.036;2022-09-28T12:24:35;4.80;;;1.42;;
72427;SDS011;60419;48.880;18.036;2022-09-28T12:27:30;3.42;;;1.42;;
72427;SDS011;60419;48.880;18.036;2022-09-28T12:30:23;2.00;;;0.95;;
72427;SDS011;60419;48.880;18.036;2022-09-28T12:33:10;2.72;;;0.90;;
72427;SDS011;60419;48.880;18.036;2022-09-28T12:36:05;4.28;;;1.10;;
72427;SDS011;60419;48.880;18.036;2022-09-28T12:39:09;1.27;;;0.70;;
72427;SDS011;60419;48.880;18.036;2022-09-28T12:42:10;3.05;;;1.15;;
72427;SDS011;60419;48.880;18.036;2022-09-28T12:51:32;2.78;;;1.10;;
72427;SDS011;60419;48.880;18.036;2022-09-28T12:54:41;2.90;;;0.75;;
72427;SDS011;60419;48.880;18.036;2022-09-28T12:57:38;1.20;;;0.80;;
72427;SDS011;60419;48.880;18.036;2022-09-28T13:00:37;4.22;;;0.80;;
72427;SDS011;60419;48.880;18.036;2022-09-28T13:07:02;1.92;;;1.05;;
72427;SDS011;60419;48.880;18.036;2022-09-28T13:13:11;2.50;;;1.15;;
72427;SDS011;60419;48.880;18.036;2022-09-28T13:18:59;0.75;;;0.60;;
72427;SDS011;60419;48.880;18.036;2022-09-28T13:22:12;1.08;;;0.60;;
72427;SDS011;60419;48.880;18.036;2022-09-28T13:25:01;1.02;;;0.77;;
72427;SDS011;60419;48.880;18.036;2022-09-28T13:27:54;1.80;;;0.60;;
72427;SDS011;60419;48.880;18.036;2022-09-28T13:30:50;0.80;;;0.70;;
72427;SDS011;60419;48.880;18.036;2022-09-28T13:33:38;2.05;;;0.73;;
72427;SDS011;60419;48.880;18.036;2022-09-28T13:45:30;2.28;;;0.63;;
72427;SDS011;60419;48.880;18.036;2022-09-28T13:48:34;2.85;;;0.75;;
72427;SDS011;60419;48.880;18.036;2022-09-28T13:51:41;2.75;;;0.90;;
72427;SDS011;60419;48.880;18.036;2022-09-28T14:00:49;1.87;;;0.80;;
72427;SDS011;60419;48.880;18.036;2022-09-28T14:07:08;1.30;;;0.70;;
72427;SDS011;60419;48.880;18.036;2022-09-28T14:10:20;2.80;;;0.80;;
72427;SDS011;60419;48.880;18.036;2022-09-28T14:13:09;3.15;;;0.88;;
72427;SDS011;60419;48.880;18.036;2022-09-28T14:16:12;5.82;;;0.80;;
72427;SDS011;60419;48.880;18.036;2022-09-28T14:19:02;1.40;;;0.90;;
72427;SDS011;60419;48.880;18.036;2022-09-28T14:25:26;2.10;;;0.82;;
72427;SDS011;60419;48.880;18.036;2022-09-28T14:31:25;1.07;;;0.67;;
72427;SDS011;60419;48.880;18.036;2022-09-28T14:34:22;1.25;;;0.73;;
72427;SDS011;60419;48.880;18.036;2022-09-28T14:37:29;4.72;;;0.95;;
72427;SDS011;60419;48.880;18.036;2022-09-28T14:44:01;3.08;;;1.00;;
72427;SDS011;60419;48.880;18.036;2022-09-28T14:46:53;1.90;;;0.90;;
72427;SDS011;60419;48.880;18.036;2022-09-28T14:53:11;2.92;;;0.90;;
72427;SDS011;60419;48.880;18.036;2022-09-28T14:56:00;1.50;;;0.70;;
72427;SDS011;60419;48.880;18.036;2022-09-28T14:58:53;3.83;;;0.82;;
72427;SDS011;60419;48.880;18.036;2022-09-28T15:01:42;3.42;;;1.30;;
72427;SDS011;60419;48.880;18.036;2022-09-28T15:04:32;0.77;;;0.60;;
72427;SDS011;60419;48.880;18.036;2022-09-28T15:13:16;3.65;;;0.70;;
72427;SDS011;60419;48.880;18.036;2022-09-28T15:16:16;1.08;;;0.70;;
72427;SDS011;60419;48.880;18.036;2022-09-28T15:19:12;2.22;;;0.80;;
72427;SDS011;60419;48.880;18.036;2022-09-28T15:22:13;1.92;;;0.73;;
72427;SDS011;60419;48.880;18.036;2022-09-28T15:25:03;2.65;;;0.65;;
72427;SDS011;60419;48.880;18.036;2022-09-28T15:27:58;1.50;;;0.93;;
72427;SDS011;60419;48.880;18.036;2022-09-28T15:30:48;2.00;;;0.93;;
72427;SDS011;60419;48.880;18.036;2022-09-28T15:33:34;2.80;;;0.98;;
72427;SDS011;60419;48.880;18.036;2022-09-28T15:36:38;3.40;;;1.25;;
72427;SDS011;60419;48.880;18.036;2022-09-28T15:39:31;4.10;;;1.20;;
72427;SDS011;60419;48.880;18.036;2022-09-28T15:42:18;2.97;;;1.33;;
72427;SDS011;60419;48.880;18.036;2022-09-28T15:51:07;2.42;;;1.15;;
72427;SDS011;60419;48.880;18.036;2022-09-28T15:54:02;2.45;;;1.10;;
72427;SDS011;60419;48.880;18.036;2022-09-28T15:56:54;2.05;;;0.95;;
72427;SDS011;60419;48.880;18.036;2022-09-28T15:59:41;2.17;;;1.08;;
72427;SDS011;60419;48.880;18.036;2022-09-28T16:02:28;20.95;;;1.75;;
72427;SDS011;60419;48.880;18.036;2022-09-28T16:05:48;3.05;;;1.42;;
72427;SDS011;60419;48.880;18.036;2022-09-28T16:11:36;3.72;;;1.30;;
72427;SDS011;60419;48.880;18.036;2022-09-28T16:14:24;1.98;;;1.10;;
72427;SDS011;60419;48.880;18.036;2022-09-28T16:17:14;4.00;;;1.20;;
72427;SDS011;60419;48.880;18.036;2022-09-28T16:26:04;3.67;;;1.40;;
72427;SDS011;60419;48.880;18.036;2022-09-28T16:28:54;3.83;;;1.60;;
72427;SDS011;60419;48.880;18.036;2022-09-28T16:31:39;3.40;;;1.30;;
72427;SDS011;60419;48.880;18.036;2022-09-28T16:34:29;3.42;;;1.40;;
72427;SDS011;60419;48.880;18.036;2022-09-28T16:37:28;4.47;;;1.70;;
72427;SDS011;60419;48.880;18.036;2022-09-28T16:40:17;3.47;;;1.52;;
72427;SDS011;60419;48.880;18.036;2022-09-28T16:43:03;4.20;;;1.20;;
72427;SDS011;60419;48.880;18.036;2022-09-28T16:45:51;5.20;;;1.55;;
72427;SDS011;60419;48.880;18.036;2022-09-28T16:48:48;4.25;;;1.48;;
72427;SDS011;60419;48.880;18.036;2022-09-28T16:51:34;3.88;;;1.70;;
72427;SDS011;60419;48.880;18.036;2022-09-28T16:54:20;3.03;;;1.40;;
72427;SDS011;60419;48.880;18.036;2022-09-28T16:57:25;6.75;;;1.50;;
72427;SDS011;60419;48.880;18.036;2022-09-28T17:00:18;4.15;;;1.38;;
72427;SDS011;60419;48.880;18.036;2022-09-28T17:03:16;3.08;;;1.48;;
72427;SDS011;60419;48.880;18.036;2022-09-28T17:06:03;4.90;;;1.23;;
72427;SDS011;60419;48.880;18.036;2022-09-28T17:08:52;3.83;;;1.35;;
72427;SDS011;60419;48.880;18.036;2022-09-28T17:11:43;3.58;;;1.70;;
72427;SDS011;60419;48.880;18.036;2022-09-28T17:14:28;4.20;;;1.38;;
72427;SDS011;60419;48.880;18.036;2022-09-28T17:17:16;4.38;;;1.50;;
72427;SDS011;60419;48.880;18.036;2022-09-28T17:20:05;4.35;;;2.38;;
72427;SDS011;60419;48.880;18.036;2022-09-28T17:23:01;6.93;;;3.50;;
72427;SDS011;60419;48.880;18.036;2022-09-28T17:25:46;4.85;;;1.83;;
72427;SDS011;60419;48.880;18.036;2022-09-28T17:28:33;3.75;;;2.00;;
72427;SDS011;60419;48.880;18.036;2022-09-28T17:31:20;3.40;;;1.55;;
72427;SDS011;60419;48.880;18.036;2022-09-28T17:34:06;4.13;;;1.80;;
72427;SDS011;60419;48.880;18.036;2022-09-28T17:36:51;5.13;;;2.30;;
72427;SDS011;60419;48.880;18.036;2022-09-28T17:39:37;4.47;;;1.70;;
72427;SDS011;60419;48.880;18.036;2022-09-28T17:42:22;8.43;;;3.33;;
72427;SDS011;60419;48.880;18.036;2022-09-28T17:45:07;4.50;;;2.35;;
72427;SDS011;60419;48.880;18.036;2022-09-28T17:47:53;3.80;;;1.80;;
72427;SDS011;60419;48.880;18.036;2022-09-28T17:50:39;5.43;;;2.83;;
72427;SDS011;60419;48.880;18.036;2022-09-28T17:53:27;5.20;;;2.20;;
72427;SDS011;60419;48.880;18.036;2022-09-28T17:56:12;6.35;;;1.88;;
72427;SDS011;60419;48.880;18.036;2022-09-28T17:58:58;3.67;;;1.30;;
72427;SDS011;60419;48.880;18.036;2022-09-28T18:01:46;3.97;;;1.45;;
72427;SDS011;60419;48.880;18.036;2022-09-28T18:04:32;3.55;;;1.30;;
72427;SDS011;60419;48.880;18.036;2022-09-28T18:07:17;3.25;;;1.40;;
72427;SDS011;60419;48.880;18.036;2022-09-28T18:10:03;2.97;;;1.65;;
72427;SDS011;60419;48.880;18.036;2022-09-28T18:12:50;4.35;;;1.50;;
72427;SDS011;60419;48.880;18.036;2022-09-28T18:15:35;3.55;;;1.42;;
72427;SDS011;60419;48.880;18.036;2022-09-28T18:18:21;2.70;;;1.25;;
72427;SDS011;60419;48.880;18.036;2022-09-28T18:21:07;5.63;;;1.65;;
72427;SDS011;60419;48.880;18.036;2022-09-28T18:23:53;4.85;;;1.73;;
72427;SDS011;60419;48.880;18.036;2022-09-28T18:26:38;3.42;;;1.50;;
72427;SDS011;60419;48.880;18.036;2022-09-28T18:29:24;5.15;;;1.70;;
72427;SDS011;60419;48.880;18.036;2022-09-28T18:32:09;3.88;;;1.65;;
72427;SDS011;60419;48.880;18.036;2022-09-28T18:34:54;6.20;;;2.40;;
72427;SDS011;60419;48.880;18.036;2022-09-28T18:37:40;2.38;;;1.30;;
72427;SDS011;60419;48.880;18.036;2022-09-28T18:40:25;6.57;;;1.40;;
72427;SDS011;60419;48.880;18.036;2022-09-28T18:43:11;3.25;;;1.45;;
72427;SDS011;60419;48.880;18.036;2022-09-28T18:45:56;6.63;;;1.50;;
72427;SDS011;60419;48.880;18.036;2022-09-28T18:48:42;4.75;;;1.92;;
72427;SDS011;60419;48.880;18.036;2022-09-28T18:51:27;4.97;;;1.88;;
72427;SDS011;60419;48.880;18.036;2022-09-28T18:54:13;3.13;;;1.60;;
72427;SDS011;60419;48.880;18.036;2022-09-28T18:56:59;5.82;;;1.80;;
72427;SDS011;60419;48.880;18.036;2022-09-28T18:59:44;5.13;;;1.55;;
72427;SDS011;60419;48.880;18.036;2022-09-28T19:02:30;4.45;;;1.48;;
72427;SDS011;60419;48.880;18.036;2022-09-28T19:05:15;3.50;;;1.52;;
72427;SDS011;60419;48.880;18.036;2022-09-28T19:08:01;5.25;;;1.30;;
72427;SDS011;60419;48.880;18.036;2022-09-28T19:10:46;6.22;;;2.72;;
72427;SDS011;60419;48.880;18.036;2022-09-28T19:13:32;3.30;;;1.63;;
72427;SDS011;60419;48.880;18.036;2022-09-28T19:16:19;3.97;;;1.55;;
72427;SDS011;60419;48.880;18.036;2022-09-28T19:19:06;3.03;;;1.48;;
72427;SDS011;60419;48.880;18.036;2022-09-28T19:21:54;2.80;;;1.40;;
72427;SDS011;60419;48.880;18.036;2022-09-28T19:24:40;5.45;;;1.90;;